sensor_id;sensor_type;location;lat;lon;timestamp;temperature;humidity
24448;DHT22;13348;50.984;5.822;2023-12-20T00:00:28;7.80;99.90
24448;DHT22;13348;50.984;5.822;2023-12-20T00:02:54;7.80;99.90
24448;DHT22;13348;50.984;5.822;2023-12-20T00:05:21;7.70;99.90
24448;DHT22;13348;50.984;5.822;2023-12-20T00:07:48;7.70;99.90
24448;DHT22;13348;50.984;5.822;2023-12-20T00:10:15;7.70;99.90
24448;DHT22;13348;50.984;5.822;2023-12-20T00:12:42;7.60;99.90
24448;DHT22;13348;50.984;5.822;2023-12-20T00:15:09;7.50;99.90
24448;DHT22;13348;50.984;5.822;2023-12-20T00:17:38;7.40;99.90
24448;DHT22;13348;50.984;5.822;2023-12-20T00:20:05;7.20;99.90
24448;DHT22;13348;50.984;5.822;2023-12-20T00:22:32;7.20;99.90
24448;DHT22;13348;50.984;5.822;2023-12-20T00:24:59;7.00;99.90
24448;DHT22;13348;50.984;5.822;2023-12-20T00:27:26;6.90;99.90
24448;DHT22;13348;50.984;5.822;2023-12-20T00:29:53;6.80;99.90
24448;DHT22;13348;50.984;5.822;2023-12-20T00:32:20;6.70;99.90
24448;DHT22;13348;50.984;5.822;2023-12-20T00:34:48;6.60;99.90
24448;DHT22;13348;50.984;5.822;2023-12-20T00:37:15;6.50;99.90
24448;DHT22;13348;50.984;5.822;2023-12-20T00:39:43;6.40;99.90
24448;DHT22;13348;50.984;5.822;2023-12-20T00:42:10;6.30;99.90
24448;DHT22;13348;50.984;5.822;2023-12-20T00:44:37;6.30;99.90
24448;DHT22;13348;50.984;5.822;2023-12-20T00:47:04;6.20;99.90
24448;DHT22;13348;50.984;5.822;2023-12-20T00:49:31;6.20;99.90
24448;DHT22;13348;50.984;5.822;2023-12-20T00:51:59;6.20;99.90
24448;DHT22;13348;50.984;5.822;2023-12-20T00:54:26;6.10;99.90
24448;DHT22;13348;50.984;5.822;2023-12-20T00:56:54;6.00;99.90
24448;DHT22;13348;50.984;5.822;2023-12-20T00:59:21;5.90;99.90
24448;DHT22;13348;50.984;5.822;2023-12-20T01:01:47;5.80;99.90
24448;DHT22;13348;50.984;5.822;2023-12-20T01:04:14;5.80;99.90
24448;DHT22;13348;50.984;5.822;2023-12-20T01:06:41;5.90;99.90
24448;DHT22;13348;50.984;5.822;2023-12-20T01:09:10;5.90;99.90
24448;DHT22;13348;50.984;5.822;2023-12-20T01:11:37;6.00;99.90
24448;DHT22;13348;50.984;5.822;2023-12-20T01:14:04;5.90;99.90
24448;DHT22;13348;50.984;5.822;2023-12-20T01:16:31;5.90;99.90
24448;DHT22;13348;50.984;5.822;2023-12-20T01:18:58;6.00;99.90
24448;DHT22;13348;50.984;5.822;2023-12-20T01:21:25;6.00;99.90
24448;DHT22;13348;50.984;5.822;2023-12-20T01:23:52;6.00;99.90
24448;DHT22;13348;50.984;5.822;2023-12-20T01:26:20;5.80;99.90
24448;DHT22;13348;50.984;5.822;2023-12-20T01:28:47;5.80;99.90
24448;DHT22;13348;50.984;5.822;2023-12-20T01:31:14;5.80;99.90
24448;DHT22;13348;50.984;5.822;2023-12-20T01:33:41;5.80;99.90
24448;DHT22;13348;50.984;5.822;2023-12-20T01:36:08;5.90;99.90
24448;DHT22;13348;50.984;5.822;2023-12-20T01:38:35;5.80;99.90
24448;DHT22;13348;50.984;5.822;2023-12-20T01:41:02;5.70;99.90
24448;DHT22;13348;50.984;5.822;2023-12-20T01:43:31;5.60;99.90
24448;DHT22;13348;50.984;5.822;2023-12-20T01:45:58;5.70;99.90
24448;DHT22;13348;50.984;5.822;2023-12-20T01:48:25;5.80;99.90
24448;DHT22;13348;50.984;5.822;2023-12-20T01:50:52;5.70;99.90
24448;DHT22;13348;50.984;5.822;2023-12-20T01:53:20;5.70;99.90
24448;DHT22;13348;50.984;5.822;2023-12-20T01:55:48;5.60;99.90
24448;DHT22;13348;50.984;5.822;2023-12-20T01:58:16;5.60;99.90
24448;DHT22;13348;50.984;5.822;2023-12-20T02:00:45;5.50;99.90
24448;DHT22;13348;50.984;5.822;2023-12-20T02:03:12;5.60;99.90
24448;DHT22;13348;50.984;5.822;2023-12-20T02:05:39;5.70;99.90
24448;DHT22;13348;50.984;5.822;2023-12-20T02:08:07;5.60;99.90
24448;DHT22;13348;50.984;5.822;2023-12-20T02:10:34;5.60;99.90
24448;DHT22;13348;50.984;5.822;2023-12-20T02:13:01;5.60;99.90
24448;DHT22;13348;50.984;5.822;2023-12-20T02:15:27;5.50;99.90
24448;DHT22;13348;50.984;5.822;2023-12-20T02:17:56;5.50;99.90
24448;DHT22;13348;50.984;5.822;2023-12-20T02:20:23;5.50;99.90
24448;DHT22;13348;50.984;5.822;2023-12-20T02:22:51;5.50;99.90
24448;DHT22;13348;50.984;5.822;2023-12-20T02:25:18;5.60;99.90
24448;DHT22;13348;50.984;5.822;2023-12-20T02:27:45;5.50;99.90
24448;DHT22;13348;50.984;5.822;2023-12-20T02:30:12;5.50;99.90
24448;DHT22;13348;50.984;5.822;2023-12-20T02:32:39;5.50;99.90
24448;DHT22;13348;50.984;5.822;2023-12-20T02:35:06;5.60;99.90
24448;DHT22;13348;50.984;5.822;2023-12-20T02:37:33;5.60;99.90
24448;DHT22;13348;50.984;5.822;2023-12-20T02:40:02;5.70;99.90
24448;DHT22;13348;50.984;5.822;2023-12-20T02:42:29;5.60;99.90
24448;DHT22;13348;50.984;5.822;2023-12-20T02:44:56;5.60;99.90
24448;DHT22;13348;50.984;5.822;2023-12-20T02:47:23;5.60;99.90
24448;DHT22;13348;50.984;5.822;2023-12-20T02:49:50;5.60;99.90
24448;DHT22;13348;50.984;5.822;2023-12-20T02:52:18;5.40;99.90
24448;DHT22;13348;50.984;5.822;2023-12-20T02:54:45;5.40;99.90
24448;DHT22;13348;50.984;5.822;2023-12-20T02:57:14;5.40;99.90
24448;DHT22;13348;50.984;5.822;2023-12-20T02:59:41;5.30;99.90
24448;DHT22;13348;50.984;5.822;2023-12-20T03:02:07;5.30;99.90
24448;DHT22;13348;50.984;5.822;2023-12-20T03:04:34;5.30;99.90
24448;DHT22;13348;50.984;5.822;2023-12-20T03:07:01;5.40;99.90
24448;DHT22;13348;50.984;5.822;2023-12-20T03:09:28;5.40;99.90
24448;DHT22;13348;50.984;5.822;2023-12-20T03:11:55;5.50;99.90
24448;DHT22;13348;50.984;5.822;2023-12-20T03:14:24;5.50;99.90
24448;DHT22;13348;50.984;5.822;2023-12-20T03:16:51;5.50;99.90
24448;DHT22;13348;50.984;5.822;2023-12-20T03:19:18;5.50;99.90
24448;DHT22;13348;50.984;5.822;2023-12-20T03:21:45;5.30;99.90
24448;DHT22;13348;50.984;5.822;2023-12-20T03:24:12;5.20;99.90
24448;DHT22;13348;50.984;5.822;2023-12-20T03:26:39;5.20;99.90
24448;DHT22;13348;50.984;5.822;2023-12-20T03:29:06;5.20;99.90
24448;DHT22;13348;50.984;5.822;2023-12-20T03:31:34;5.20;99.90
24448;DHT22;13348;50.984;5.822;2023-12-20T03:34:01;5.30;99.90
24448;DHT22;13348;50.984;5.822;2023-12-20T03:36:28;5.30;99.90
24448;DHT22;13348;50.984;5.822;2023-12-20T03:38:55;5.40;99.90
24448;DHT22;13348;50.984;5.822;2023-12-20T03:41:22;5.30;99.90
24448;DHT22;13348;50.984;5.822;2023-12-20T03:43:49;5.30;99.90
24448;DHT22;13348;50.984;5.822;2023-12-20T03:46:16;5.20;99.90
24448;DHT22;13348;50.984;5.822;2023-12-20T03:48:44;5.20;99.90
24448;DHT22;13348;50.984;5.822;2023-12-20T03:51:11;5.10;99.90
24448;DHT22;13348;50.984;5.822;2023-12-20T03:53:38;5.10;99.90
24448;DHT22;13348;50.984;5.822;2023-12-20T03:56:06;5.10;99.90
24448;DHT22;13348;50.984;5.822;2023-12-20T03:58:33;5.00;99.90
24448;DHT22;13348;50.984;5.822;2023-12-20T04:01:00;4.90;99.90
24448;DHT22;13348;50.984;5.822;2023-12-20T04:03:28;4.90;99.90
24448;DHT22;13348;50.984;5.822;2023-12-20T04:05:56;4.90;99.90
24448;DHT22;13348;50.984;5.822;2023-12-20T04:08:23;5.00;99.90
24448;DHT22;13348;50.984;5.822;2023-12-20T04:10:50;5.00;99.90
24448;DHT22;13348;50.984;5.822;2023-12-20T04:13:17;5.00;99.90
24448;DHT22;13348;50.984;5.822;2023-12-20T04:15:44;5.00;99.90
24448;DHT22;13348;50.984;5.822;2023-12-20T04:18:11;5.00;99.90
24448;DHT22;13348;50.984;5.822;2023-12-20T04:20:37;5.00;99.90
24448;DHT22;13348;50.984;5.822;2023-12-20T04:23:06;5.10;99.90
24448;DHT22;13348;50.984;5.822;2023-12-20T04:25:33;5.10;99.90
24448;DHT22;13348;50.984;5.822;2023-12-20T04:28:00;5.10;99.90
24448;DHT22;13348;50.984;5.822;2023-12-20T04:30:27;5.10;99.90
24448;DHT22;13348;50.984;5.822;2023-12-20T04:32:53;5.10;99.90
24448;DHT22;13348;50.984;5.822;2023-12-20T04:35:20;5.10;99.90
24448;DHT22;13348;50.984;5.822;2023-12-20T04:37:47;5.20;99.90
24448;DHT22;13348;50.984;5.822;2023-12-20T04:40:16;5.10;99.90
24448;DHT22;13348;50.984;5.822;2023-12-20T04:42:43;5.20;99.90
24448;DHT22;13348;50.984;5.822;2023-12-20T04:45:10;5.20;99.90
24448;DHT22;13348;50.984;5.822;2023-12-20T04:47:39;5.20;99.90
24448;DHT22;13348;50.984;5.822;2023-12-20T04:50:06;5.20;99.90
24448;DHT22;13348;50.984;5.822;2023-12-20T04:52:33;5.30;99.90
24448;DHT22;13348;50.984;5.822;2023-12-20T04:55:00;5.30;99.90
24448;DHT22;13348;50.984;5.822;2023-12-20T04:57:28;5.30;99.90
24448;DHT22;13348;50.984;5.822;2023-12-20T04:59:55;5.30;99.90
24448;DHT22;13348;50.984;5.822;2023-12-20T05:02:22;5.30;99.90
24448;DHT22;13348;50.984;5.822;2023-12-20T05:04:49;5.40;99.90
24448;DHT22;13348;50.984;5.822;2023-12-20T05:07:16;5.30;99.90
24448;DHT22;13348;50.984;5.822;2023-12-20T05:09:43;5.40;99.90
24448;DHT22;13348;50.984;5.822;2023-12-20T05:12:10;5.40;99.90
24448;DHT22;13348;50.984;5.822;2023-12-20T05:14:38;5.40;99.90
24448;DHT22;13348;50.984;5.822;2023-12-20T05:17:06;5.40;99.90
24448;DHT22;13348;50.984;5.822;2023-12-20T05:19:33;5.40;99.90
24448;DHT22;13348;50.984;5.822;2023-12-20T05:22:01;5.50;99.90
24448;DHT22;13348;50.984;5.822;2023-12-20T05:24:27;5.50;99.90
24448;DHT22;13348;50.984;5.822;2023-12-20T05:26:54;5.50;99.90
24448;DHT22;13348;50.984;5.822;2023-12-20T05:29:22;5.50;99.90
24448;DHT22;13348;50.984;5.822;2023-12-20T05:31:50;5.50;99.90
24448;DHT22;13348;50.984;5.822;2023-12-20T05:34:17;5.50;99.90
24448;DHT22;13348;50.984;5.822;2023-12-20T05:36:44;5.50;99.90
24448;DHT22;13348;50.984;5.822;2023-12-20T05:39:11;5.50;99.90
24448;DHT22;13348;50.984;5.822;2023-12-20T05:41:38;5.50;99.90
24448;DHT22;13348;50.984;5.822;2023-12-20T05:44:05;5.60;99.90
24448;DHT22;13348;50.984;5.822;2023-12-20T05:46:32;5.50;99.90
24448;DHT22;13348;50.984;5.822;2023-12-20T05:49:01;5.40;99.90
24448;DHT22;13348;50.984;5.822;2023-12-20T05:51:28;5.40;99.90
24448;DHT22;13348;50.984;5.822;2023-12-20T05:53:55;5.40;99.90
24448;DHT22;13348;50.984;5.822;2023-12-20T05:56:22;5.50;99.90
24448;DHT22;13348;50.984;5.822;2023-12-20T05:58:48;5.50;99.90
24448;DHT22;13348;50.984;5.822;2023-12-20T06:01:16;5.50;99.90
24448;DHT22;13348;50.984;5.822;2023-12-20T06:03:43;5.50;99.90
24448;DHT22;13348;50.984;5.822;2023-12-20T06:06:13;5.50;99.90
24448;DHT22;13348;50.984;5.822;2023-12-20T06:08:40;5.40;99.90
24448;DHT22;13348;50.984;5.822;2023-12-20T06:11:09;5.40;99.90
24448;DHT22;13348;50.984;5.822;2023-12-20T06:13:36;5.40;99.90
24448;DHT22;13348;50.984;5.822;2023-12-20T06:16:04;5.40;99.90
24448;DHT22;13348;50.984;5.822;2023-12-20T06:18:31;5.50;99.90
24448;DHT22;13348;50.984;5.822;2023-12-20T06:20:58;5.40;99.90
24448;DHT22;13348;50.984;5.822;2023-12-20T06:23:27;5.50;99.90
24448;DHT22;13348;50.984;5.822;2023-12-20T06:25:53;5.50;99.90
24448;DHT22;13348;50.984;5.822;2023-12-20T06:28:20;5.40;99.90
24448;DHT22;13348;50.984;5.822;2023-12-20T06:30:47;5.40;99.90
24448;DHT22;13348;50.984;5.822;2023-12-20T06:33:15;5.40;99.90
24448;DHT22;13348;50.984;5.822;2023-12-20T06:35:44;5.40;99.90
24448;DHT22;13348;50.984;5.822;2023-12-20T06:38:11;5.40;99.90
24448;DHT22;13348;50.984;5.822;2023-12-20T06:40:39;5.30;99.90
24448;DHT22;13348;50.984;5.822;2023-12-20T06:43:08;5.20;99.90
24448;DHT22;13348;50.984;5.822;2023-12-20T06:45:35;5.20;99.90
24448;DHT22;13348;50.984;5.822;2023-12-20T06:48:02;5.20;99.90
24448;DHT22;13348;50.984;5.822;2023-12-20T06:50:29;5.20;99.90
24448;DHT22;13348;50.984;5.822;2023-12-20T06:52:56;5.10;99.90
24448;DHT22;13348;50.984;5.822;2023-12-20T06:55:23;5.20;99.90
24448;DHT22;13348;50.984;5.822;2023-12-20T06:57:51;5.20;99.90
24448;DHT22;13348;50.984;5.822;2023-12-20T07:00:18;5.10;99.90
24448;DHT22;13348;50.984;5.822;2023-12-20T07:02:46;5.00;99.90
24448;DHT22;13348;50.984;5.822;2023-12-20T07:05:15;5.10;99.90
24448;DHT22;13348;50.984;5.822;2023-12-20T07:07:42;5.10;99.90
24448;DHT22;13348;50.984;5.822;2023-12-20T07:10:09;5.10;99.90
24448;DHT22;13348;50.984;5.822;2023-12-20T07:12:36;5.10;99.90
24448;DHT22;13348;50.984;5.822;2023-12-20T07:15:05;5.00;99.90
24448;DHT22;13348;50.984;5.822;2023-12-20T07:17:32;4.90;99.90
24448;DHT22;13348;50.984;5.822;2023-12-20T07:19:59;4.90;99.90
24448;DHT22;13348;50.984;5.822;2023-12-20T07:22:29;4.80;99.90
24448;DHT22;13348;50.984;5.822;2023-12-20T07:24:57;4.80;99.90
24448;DHT22;13348;50.984;5.822;2023-12-20T07:27:24;4.80;99.90
24448;DHT22;13348;50.984;5.822;2023-12-20T07:29:51;4.80;99.90
24448;DHT22;13348;50.984;5.822;2023-12-20T07:32:19;4.80;99.90
24448;DHT22;13348;50.984;5.822;2023-12-20T07:34:46;4.80;99.90
24448;DHT22;13348;50.984;5.822;2023-12-20T07:37:13;4.90;99.90
24448;DHT22;13348;50.984;5.822;2023-12-20T07:39:40;5.00;99.90
24448;DHT22;13348;50.984;5.822;2023-12-20T07:42:07;4.90;99.90
24448;DHT22;13348;50.984;5.822;2023-12-20T07:44:34;5.00;99.90
24448;DHT22;13348;50.984;5.822;2023-12-20T07:47:02;4.90;99.90
24448;DHT22;13348;50.984;5.822;2023-12-20T07:49:31;4.90;99.90
24448;DHT22;13348;50.984;5.822;2023-12-20T07:51:58;4.90;99.90
24448;DHT22;13348;50.984;5.822;2023-12-20T07:54:25;4.80;99.90
24448;DHT22;13348;50.984;5.822;2023-12-20T07:56:51;4.80;99.90
24448;DHT22;13348;50.984;5.822;2023-12-20T07:59:18;4.80;99.90
24448;DHT22;13348;50.984;5.822;2023-12-20T08:01:45;5.00;99.90
24448;DHT22;13348;50.984;5.822;2023-12-20T08:04:12;5.00;99.90
24448;DHT22;13348;50.984;5.822;2023-12-20T08:06:40;5.00;99.90
24448;DHT22;13348;50.984;5.822;2023-12-20T08:09:07;5.00;99.90
24448;DHT22;13348;50.984;5.822;2023-12-20T08:11:35;5.00;99.90
24448;DHT22;13348;50.984;5.822;2023-12-20T08:14:02;5.00;99.90
24448;DHT22;13348;50.984;5.822;2023-12-20T08:16:29;5.00;99.90
24448;DHT22;13348;50.984;5.822;2023-12-20T08:18:56;5.00;99.90
24448;DHT22;13348;50.984;5.822;2023-12-20T08:21:23;5.00;99.90
24448;DHT22;13348;50.984;5.822;2023-12-20T08:23:51;5.00;99.90
24448;DHT22;13348;50.984;5.822;2023-12-20T08:26:18;4.90;99.90
24448;DHT22;13348;50.984;5.822;2023-12-20T08:28:46;4.90;99.90
24448;DHT22;13348;50.984;5.822;2023-12-20T08:31:13;5.00;99.90
24448;DHT22;13348;50.984;5.822;2023-12-20T08:33:40;5.10;99.90
24448;DHT22;13348;50.984;5.822;2023-12-20T08:36:07;5.10;99.90
24448;DHT22;13348;50.984;5.822;2023-12-20T08:38:34;5.10;99.90
24448;DHT22;13348;50.984;5.822;2023-12-20T08:41:03;5.20;99.90
24448;DHT22;13348;50.984;5.822;2023-12-20T08:43:30;5.40;99.90
24448;DHT22;13348;50.984;5.822;2023-12-20T08:45:57;5.40;99.90
24448;DHT22;13348;50.984;5.822;2023-12-20T08:48:24;5.40;99.90
24448;DHT22;13348;50.984;5.822;2023-12-20T08:50:51;5.40;99.90
24448;DHT22;13348;50.984;5.822;2023-12-20T08:53:18;5.40;99.90
24448;DHT22;13348;50.984;5.822;2023-12-20T08:55:46;5.30;99.90
24448;DHT22;13348;50.984;5.822;2023-12-20T08:58:14;5.30;99.90
24448;DHT22;13348;50.984;5.822;2023-12-20T09:00:42;5.30;99.90
24448;DHT22;13348;50.984;5.822;2023-12-20T09:03:09;5.40;99.90
24448;DHT22;13348;50.984;5.822;2023-12-20T09:05:35;5.50;99.90
24448;DHT22;13348;50.984;5.822;2023-12-20T09:08:02;5.60;99.90
24448;DHT22;13348;50.984;5.822;2023-12-20T09:10:29;5.90;99.90
24448;DHT22;13348;50.984;5.822;2023-12-20T09:12:56;5.90;99.90
24448;DHT22;13348;50.984;5.822;2023-12-20T09:15:25;5.80;99.90
24448;DHT22;13348;50.984;5.822;2023-12-20T09:17:52;5.70;99.90
24448;DHT22;13348;50.984;5.822;2023-12-20T09:20:19;6.00;99.90
24448;DHT22;13348;50.984;5.822;2023-12-20T09:22:46;6.20;99.90
24448;DHT22;13348;50.984;5.822;2023-12-20T09:25:13;6.10;99.90
24448;DHT22;13348;50.984;5.822;2023-12-20T09:27:41;6.40;99.90
24448;DHT22;13348;50.984;5.822;2023-12-20T09:30:08;6.70;99.90
24448;DHT22;13348;50.984;5.822;2023-12-20T09:32:36;6.90;99.90
24448;DHT22;13348;50.984;5.822;2023-12-20T09:35:04;6.60;99.90
24448;DHT22;13348;50.984;5.822;2023-12-20T09:37:32;6.70;99.90
24448;DHT22;13348;50.984;5.822;2023-12-20T09:39:59;6.90;99.90
24448;DHT22;13348;50.984;5.822;2023-12-20T09:42:29;7.20;99.90
24448;DHT22;13348;50.984;5.822;2023-12-20T09:44:59;6.80;99.90
24448;DHT22;13348;50.984;5.822;2023-12-20T09:47:28;6.80;99.90
24448;DHT22;13348;50.984;5.822;2023-12-20T09:49:57;6.60;99.90
24448;DHT22;13348;50.984;5.822;2023-12-20T09:52:24;6.60;99.90
24448;DHT22;13348;50.984;5.822;2023-12-20T09:54:51;7.10;99.90
24448;DHT22;13348;50.984;5.822;2023-12-20T09:57:20;7.40;99.90
24448;DHT22;13348;50.984;5.822;2023-12-20T09:59:47;7.10;99.90
24448;DHT22;13348;50.984;5.822;2023-12-20T10:02:14;6.90;99.90
24448;DHT22;13348;50.984;5.822;2023-12-20T10:04:41;6.90;99.90
24448;DHT22;13348;50.984;5.822;2023-12-20T10:07:13;7.00;99.90
24448;DHT22;13348;50.984;5.822;2023-12-20T10:09:40;7.50;99.90
24448;DHT22;13348;50.984;5.822;2023-12-20T10:12:08;7.40;99.90
24448;DHT22;13348;50.984;5.822;2023-12-20T10:14:35;7.00;99.90
24448;DHT22;13348;50.984;5.822;2023-12-20T10:17:02;6.90;99.90
24448;DHT22;13348;50.984;5.822;2023-12-20T10:19:31;6.80;99.90
24448;DHT22;13348;50.984;5.822;2023-12-20T10:21:59;6.70;99.90
24448;DHT22;13348;50.984;5.822;2023-12-20T10:24:28;6.70;99.90
24448;DHT22;13348;50.984;5.822;2023-12-20T10:27:02;6.80;99.90
24448;DHT22;13348;50.984;5.822;2023-12-20T10:29:33;6.70;99.90
24448;DHT22;13348;50.984;5.822;2023-12-20T10:32:08;6.70;99.90
24448;DHT22;13348;50.984;5.822;2023-12-20T10:34:48;6.60;99.90
24448;DHT22;13348;50.984;5.822;2023-12-20T10:37:15;6.70;99.90
24448;DHT22;13348;50.984;5.822;2023-12-20T10:39:44;6.70;99.90
24448;DHT22;13348;50.984;5.822;2023-12-20T10:42:11;6.60;99.90
24448;DHT22;13348;50.984;5.822;2023-12-20T10:44:38;6.60;99.90
24448;DHT22;13348;50.984;5.822;2023-12-20T10:47:06;6.70;99.90
24448;DHT22;13348;50.984;5.822;2023-12-20T10:49:33;6.70;99.90
24448;DHT22;13348;50.984;5.822;2023-12-20T10:52:03;6.80;99.90
24448;DHT22;13348;50.984;5.822;2023-12-20T10:54:30;6.80;99.90
24448;DHT22;13348;50.984;5.822;2023-12-20T10:56:58;6.80;99.90
24448;DHT22;13348;50.984;5.822;2023-12-20T10:59:26;7.00;99.90
24448;DHT22;13348;50.984;5.822;2023-12-20T11:01:54;7.20;99.90
24448;DHT22;13348;50.984;5.822;2023-12-20T11:04:23;7.40;99.90
24448;DHT22;13348;50.984;5.822;2023-12-20T11:06:52;7.70;99.90
24448;DHT22;13348;50.984;5.822;2023-12-20T11:09:21;7.60;99.90
24448;DHT22;13348;50.984;5.822;2023-12-20T11:11:56;7.40;99.90
24448;DHT22;13348;50.984;5.822;2023-12-20T11:14:25;7.30;99.90
24448;DHT22;13348;50.984;5.822;2023-12-20T11:17:05;7.30;99.90
24448;DHT22;13348;50.984;5.822;2023-12-20T11:19:32;7.30;99.90
24448;DHT22;13348;50.984;5.822;2023-12-20T11:22:00;7.20;99.90
24448;DHT22;13348;50.984;5.822;2023-12-20T11:24:26;7.20;99.90
24448;DHT22;13348;50.984;5.822;2023-12-20T11:26:55;7.20;99.90
24448;DHT22;13348;50.984;5.822;2023-12-20T11:29:33;7.20;99.90
24448;DHT22;13348;50.984;5.822;2023-12-20T11:32:27;7.30;99.90
24448;DHT22;13348;50.984;5.822;2023-12-20T11:34:56;7.30;99.90
24448;DHT22;13348;50.984;5.822;2023-12-20T11:37:28;7.30;99.90
24448;DHT22;13348;50.984;5.822;2023-12-20T11:39:55;7.30;99.90
24448;DHT22;13348;50.984;5.822;2023-12-20T11:42:22;7.30;99.90
24448;DHT22;13348;50.984;5.822;2023-12-20T11:44:51;7.20;99.90
24448;DHT22;13348;50.984;5.822;2023-12-20T11:47:18;7.20;99.90
24448;DHT22;13348;50.984;5.822;2023-12-20T11:49:46;7.20;99.90
24448;DHT22;13348;50.984;5.822;2023-12-20T11:52:13;7.20;99.90
24448;DHT22;13348;50.984;5.822;2023-12-20T11:54:40;7.30;99.90
24448;DHT22;13348;50.984;5.822;2023-12-20T11:57:07;7.20;99.90
24448;DHT22;13348;50.984;5.822;2023-12-20T11:59:35;7.10;99.90
24448;DHT22;13348;50.984;5.822;2023-12-20T12:02:04;7.10;99.90
24448;DHT22;13348;50.984;5.822;2023-12-20T12:04:31;7.10;99.90
24448;DHT22;13348;50.984;5.822;2023-12-20T12:06:58;7.00;99.90
24448;DHT22;13348;50.984;5.822;2023-12-20T12:09:25;6.90;99.90
24448;DHT22;13348;50.984;5.822;2023-12-20T12:11:52;6.90;99.90
24448;DHT22;13348;50.984;5.822;2023-12-20T12:14:19;6.80;99.90
24448;DHT22;13348;50.984;5.822;2023-12-20T12:16:46;6.70;99.90
24448;DHT22;13348;50.984;5.822;2023-12-20T12:19:22;6.70;99.90
24448;DHT22;13348;50.984;5.822;2023-12-20T12:21:49;6.60;99.90
24448;DHT22;13348;50.984;5.822;2023-12-20T12:24:19;6.60;99.90
24448;DHT22;13348;50.984;5.822;2023-12-20T12:26:49;6.50;99.90
24448;DHT22;13348;50.984;5.822;2023-12-20T12:29:16;6.60;99.90
24448;DHT22;13348;50.984;5.822;2023-12-20T12:31:43;6.60;99.90
24448;DHT22;13348;50.984;5.822;2023-12-20T12:34:10;6.60;99.90
24448;DHT22;13348;50.984;5.822;2023-12-20T12:36:39;6.60;99.90
24448;DHT22;13348;50.984;5.822;2023-12-20T12:39:06;6.70;99.90
24448;DHT22;13348;50.984;5.822;2023-12-20T12:41:33;6.70;99.90
24448;DHT22;13348;50.984;5.822;2023-12-20T12:44:00;6.80;99.90
24448;DHT22;13348;50.984;5.822;2023-12-20T12:46:27;6.80;99.90
24448;DHT22;13348;50.984;5.822;2023-12-20T12:48:54;6.80;99.90
24448;DHT22;13348;50.984;5.822;2023-12-20T12:51:21;7.00;99.90
24448;DHT22;13348;50.984;5.822;2023-12-20T12:53:49;6.90;99.90
24448;DHT22;13348;50.984;5.822;2023-12-20T12:56:16;7.00;99.90
24448;DHT22;13348;50.984;5.822;2023-12-20T12:58:43;7.00;99.90
24448;DHT22;13348;50.984;5.822;2023-12-20T13:01:10;6.90;99.90
24448;DHT22;13348;50.984;5.822;2023-12-20T13:03:37;6.90;99.90
24448;DHT22;13348;50.984;5.822;2023-12-20T13:06:04;6.90;99.90
24448;DHT22;13348;50.984;5.822;2023-12-20T13:08:34;6.90;99.90
24448;DHT22;13348;50.984;5.822;2023-12-20T13:11:03;6.80;99.90
24448;DHT22;13348;50.984;5.822;2023-12-20T13:13:29;6.90;99.90
24448;DHT22;13348;50.984;5.822;2023-12-20T13:15:56;6.80;99.90
24448;DHT22;13348;50.984;5.822;2023-12-20T13:18:23;6.90;99.90
24448;DHT22;13348;50.984;5.822;2023-12-20T13:20:50;6.90;99.90
24448;DHT22;13348;50.984;5.822;2023-12-20T13:23:17;7.00;99.90
24448;DHT22;13348;50.984;5.822;2023-12-20T13:25:44;6.90;99.90
24448;DHT22;13348;50.984;5.822;2023-12-20T13:28:13;7.00;99.90
24448;DHT22;13348;50.984;5.822;2023-12-20T13:30:40;7.00;99.90
24448;DHT22;13348;50.984;5.822;2023-12-20T13:33:08;7.00;99.90
24448;DHT22;13348;50.984;5.822;2023-12-20T13:35:35;7.10;99.90
24448;DHT22;13348;50.984;5.822;2023-12-20T13:38:02;7.10;99.90
24448;DHT22;13348;50.984;5.822;2023-12-20T13:40:30;7.20;99.90
24448;DHT22;13348;50.984;5.822;2023-12-20T13:42:57;7.20;99.90
24448;DHT22;13348;50.984;5.822;2023-12-20T13:45:25;7.20;99.90
24448;DHT22;13348;50.984;5.822;2023-12-20T13:47:52;7.20;99.90
24448;DHT22;13348;50.984;5.822;2023-12-20T13:50:19;7.20;99.90
24448;DHT22;13348;50.984;5.822;2023-12-20T13:52:46;7.20;99.90
24448;DHT22;13348;50.984;5.822;2023-12-20T13:55:13;7.20;99.90
24448;DHT22;13348;50.984;5.822;2023-12-20T13:57:40;7.20;99.90
24448;DHT22;13348;50.984;5.822;2023-12-20T14:00:08;7.10;99.90
24448;DHT22;13348;50.984;5.822;2023-12-20T14:02:41;7.10;99.90
24448;DHT22;13348;50.984;5.822;2023-12-20T14:05:08;7.10;99.90
24448;DHT22;13348;50.984;5.822;2023-12-20T14:07:35;7.10;99.90
24448;DHT22;13348;50.984;5.822;2023-12-20T14:10:03;7.10;99.90
24448;DHT22;13348;50.984;5.822;2023-12-20T14:12:31;7.00;99.90
24448;DHT22;13348;50.984;5.822;2023-12-20T14:15:01;7.10;99.90
24448;DHT22;13348;50.984;5.822;2023-12-20T14:17:28;7.10;99.90
24448;DHT22;13348;50.984;5.822;2023-12-20T14:19:58;7.10;99.90
24448;DHT22;13348;50.984;5.822;2023-12-20T14:22:25;7.10;99.90
24448;DHT22;13348;50.984;5.822;2023-12-20T14:24:54;7.10;99.90
24448;DHT22;13348;50.984;5.822;2023-12-20T14:27:22;7.10;99.90
24448;DHT22;13348;50.984;5.822;2023-12-20T14:29:50;7.10;99.90
24448;DHT22;13348;50.984;5.822;2023-12-20T14:32:17;7.10;99.90
24448;DHT22;13348;50.984;5.822;2023-12-20T14:34:44;7.10;99.90
24448;DHT22;13348;50.984;5.822;2023-12-20T14:37:12;7.10;99.90
24448;DHT22;13348;50.984;5.822;2023-12-20T14:39:39;7.20;99.90
24448;DHT22;13348;50.984;5.822;2023-12-20T14:42:07;7.10;99.90
24448;DHT22;13348;50.984;5.822;2023-12-20T14:44:36;7.10;99.90
24448;DHT22;13348;50.984;5.822;2023-12-20T14:47:04;7.10;99.90
24448;DHT22;13348;50.984;5.822;2023-12-20T14:49:31;7.10;99.90
24448;DHT22;13348;50.984;5.822;2023-12-20T14:51:58;7.10;99.90
24448;DHT22;13348;50.984;5.822;2023-12-20T14:54:26;7.20;99.90
24448;DHT22;13348;50.984;5.822;2023-12-20T14:56:53;7.20;99.90
24448;DHT22;13348;50.984;5.822;2023-12-20T14:59:21;7.20;99.90
24448;DHT22;13348;50.984;5.822;2023-12-20T15:01:48;7.20;99.90
24448;DHT22;13348;50.984;5.822;2023-12-20T15:04:14;7.20;99.90
24448;DHT22;13348;50.984;5.822;2023-12-20T15:06:41;7.20;99.90
24448;DHT22;13348;50.984;5.822;2023-12-20T15:09:09;7.20;99.90
24448;DHT22;13348;50.984;5.822;2023-12-20T15:11:37;7.10;99.90
24448;DHT22;13348;50.984;5.822;2023-12-20T15:14:04;7.10;99.90
24448;DHT22;13348;50.984;5.822;2023-12-20T15:16:32;7.10;99.90
24448;DHT22;13348;50.984;5.822;2023-12-20T15:18:59;7.10;99.90
24448;DHT22;13348;50.984;5.822;2023-12-20T15:21:26;7.10;99.90
24448;DHT22;13348;50.984;5.822;2023-12-20T15:23:57;7.20;99.90
24448;DHT22;13348;50.984;5.822;2023-12-20T15:26:32;7.20;99.90
24448;DHT22;13348;50.984;5.822;2023-12-20T15:29:00;7.20;99.90
24448;DHT22;13348;50.984;5.822;2023-12-20T15:31:27;7.20;99.90
24448;DHT22;13348;50.984;5.822;2023-12-20T15:33:54;7.20;99.90
24448;DHT22;13348;50.984;5.822;2023-12-20T15:36:21;7.10;99.90
24448;DHT22;13348;50.984;5.822;2023-12-20T15:38:48;7.20;99.90
24448;DHT22;13348;50.984;5.822;2023-12-20T15:41:18;7.20;99.90
24448;DHT22;13348;50.984;5.822;2023-12-20T15:43:45;7.10;99.90
24448;DHT22;13348;50.984;5.822;2023-12-20T15:46:13;7.20;99.90